createdAt,value
2022-09-23T00:00:26.030Z,10.37
2022-09-23T00:01:26.207Z,10.37
2022-09-23T00:02:26.366Z,10.36
2022-09-23T00:03:26.356Z,10.36
2022-09-23T00:04:26.506Z,10.35
2022-09-23T00:05:26.623Z,10.34
2022-09-23T00:06:26.775Z,10.33
2022-09-23T00:07:26.854Z,10.33
2022-09-23T00:08:26.994Z,10.32
2022-09-23T00:09:27.205Z,10.31
2022-09-23T00:10:27.244Z,10.31
2022-09-23T00:11:27.485Z,10.31
2022-09-23T00:12:27.561Z,10.30
2022-09-23T00:13:27.658Z,10.29
2022-09-23T00:14:27.767Z,10.27
2022-09-23T00:15:27.903Z,10.26
2022-09-23T00:16:28.097Z,10.26
2022-09-23T00:17:28.124Z,10.25
2022-09-23T00:18:28.212Z,10.25
2022-09-23T00:19:28.395Z,10.24
2022-09-23T00:20:28.503Z,10.23
2022-09-23T00:21:28.665Z,10.23
2022-09-23T00:22:28.717Z,10.23
2022-09-23T00:23:28.841Z,10.23
2022-09-23T00:24:28.951Z,10.24
2022-09-23T00:25:29.061Z,10.24
2022-09-23T00:26:29.223Z,10.24
2022-09-23T00:27:29.301Z,10.24
2022-09-23T00:28:29.389Z,10.23
2022-09-23T00:29:29.520Z,10.23
2022-09-23T00:30:29.689Z,10.23
2022-09-23T00:31:29.755Z,10.23
2022-09-23T00:32:29.889Z,10.23
2022-09-23T00:33:29.948Z,10.23
2022-09-23T00:34:30.088Z,10.23
2022-09-23T00:35:30.178Z,10.22
2022-09-23T00:36:30.353Z,10.22
2022-09-23T00:37:30.397Z,10.21
2022-09-23T00:38:30.500Z,10.20
2022-09-23T00:39:30.655Z,10.19
2022-09-23T00:40:30.806Z,10.17
2022-09-23T00:41:30.936Z,10.14
2022-09-23T00:42:31.047Z,10.12
2022-09-23T00:43:31.181Z,10.09
2022-09-23T00:44:31.287Z,10.07
2022-09-23T00:45:31.387Z,10.05
2022-09-23T00:46:31.702Z,10.04
2022-09-23T00:47:31.629Z,10.03
2022-09-23T00:48:31.728Z,10.02
2022-09-23T00:49:31.877Z,10.01
2022-09-23T00:50:31.985Z,10.01
2022-09-23T00:51:32.134Z,10.00
2022-09-23T00:52:32.297Z,9.99
2022-09-23T00:53:32.335Z,9.98
2022-09-23T00:54:32.469Z,9.96
2022-09-23T00:55:32.587Z,9.94
2022-09-23T00:56:32.745Z,9.91
2022-09-23T00:57:32.869Z,9.88
2022-09-23T00:58:32.982Z,9.85
2022-09-23T00:59:33.133Z,9.82
2022-09-23T01:00:33.244Z,9.80
2022-09-23T01:01:33.501Z,9.78
2022-09-23T01:02:33.534Z,9.76
2022-09-23T01:03:33.634Z,9.74
2022-09-23T01:04:33.682Z,9.73
2022-09-23T01:05:33.812Z,9.72
2022-09-23T01:06:33.941Z,9.71
2022-09-23T01:07:34.072Z,9.70
2022-09-23T01:08:34.211Z,9.69
2022-09-23T01:09:34.331Z,9.67
2022-09-23T01:10:34.428Z,9.65
2022-09-23T01:11:34.562Z,9.64
2022-09-23T01:12:34.719Z,9.62
2022-09-23T01:13:34.796Z,9.61
2022-09-23T01:14:34.920Z,9.59
2022-09-23T01:15:35.114Z,9.58
2022-09-23T01:16:35.382Z,9.57
2022-09-23T01:17:35.341Z,9.58
2022-09-23T01:18:35.433Z,9.58
2022-09-23T01:19:35.575Z,9.59
2022-09-23T01:20:35.739Z,9.59
2022-09-23T01:21:35.908Z,9.58
2022-09-23T01:22:35.966Z,9.57
2022-09-23T01:23:36.119Z,9.56
2022-09-23T01:24:36.220Z,9.54
2022-09-23T01:25:36.341Z,9.52
2022-09-23T01:26:36.525Z,9.50
2022-09-23T01:27:36.600Z,9.48
2022-09-23T01:28:36.732Z,9.46
2022-09-23T01:29:36.785Z,9.44
2022-09-23T01:30:37.962Z,9.42
2022-09-23T01:31:37.306Z,9.41
2022-09-23T01:32:38.201Z,9.39
2022-09-23T01:33:37.317Z,9.37
2022-09-23T01:34:37.444Z,9.35
2022-09-23T01:35:37.577Z,9.34
2022-09-23T01:36:37.716Z,9.32
2022-09-23T01:37:37.824Z,9.30
2022-09-23T01:38:38.954Z,9.29
2022-09-23T01:39:38.114Z,9.27
2022-09-23T01:40:38.241Z,9.26
2022-09-23T01:41:38.419Z,9.25
2022-09-23T01:42:38.464Z,9.24
2022-09-23T01:43:38.603Z,9.23
2022-09-23T01:44:38.731Z,9.23
2022-09-23T01:45:38.862Z,9.23
2022-09-23T01:46:39.040Z,9.22
2022-09-23T01:47:39.172Z,9.21
2022-09-23T01:48:39.292Z,9.20
2022-09-23T01:49:39.402Z,9.19
2022-09-23T01:50:39.540Z,9.18
2022-09-23T01:51:39.730Z,9.16
2022-09-23T01:52:39.820Z,9.16
2022-09-23T01:53:39.974Z,9.15
2022-09-23T01:54:40.109Z,9.13
2022-09-23T01:55:40.229Z,9.12
2022-09-23T01:56:40.467Z,9.10
2022-09-23T01:57:40.426Z,9.09
2022-09-23T01:58:40.559Z,9.07
2022-09-23T01:59:40.682Z,9.07
2022-09-23T02:00:40.815Z,9.06
2022-09-23T02:01:41.073Z,9.07
2022-09-23T02:02:41.205Z,9.08
2022-09-23T02:03:41.207Z,9.08
2022-09-23T02:04:41.350Z,9.08
2022-09-23T02:05:41.540Z,9.08
2022-09-23T02:06:41.667Z,9.07
2022-09-23T02:07:41.771Z,9.06
2022-09-23T02:08:41.887Z,9.05
2022-09-23T02:09:41.985Z,9.05
2022-09-23T02:10:42.138Z,9.05
2022-09-23T02:11:42.296Z,9.04
2022-09-23T02:12:42.412Z,9.04
2022-09-23T02:13:42.503Z,9.04
2022-09-23T02:14:42.633Z,9.04
2022-09-23T02:15:42.784Z,9.03
2022-09-23T02:16:42.960Z,9.02
2022-09-23T02:17:43.023Z,9.01
2022-09-23T02:18:43.156Z,9.00
2022-09-23T02:19:43.258Z,9.00
2022-09-23T02:20:43.421Z,8.99
2022-09-23T02:21:43.543Z,8.99
2022-09-23T02:22:43.653Z,9.00
2022-09-23T02:23:43.746Z,9.00
2022-09-23T02:24:43.899Z,9.00
2022-09-23T02:25:44.057Z,9.00
2022-09-23T02:26:44.192Z,9.00
2022-09-23T02:27:44.281Z,9.00
2022-09-23T02:28:44.430Z,8.99
2022-09-23T02:29:44.551Z,8.99
2022-09-23T02:30:44.701Z,8.98
2022-09-23T02:31:45.055Z,8.97
2022-09-23T02:32:44.942Z,8.96
2022-09-23T02:33:45.102Z,8.95
2022-09-23T02:34:45.206Z,8.94
2022-09-23T02:35:45.335Z,8.93
2022-09-23T02:36:45.499Z,8.92
2022-09-23T02:37:45.610Z,8.91
2022-09-23T02:38:45.740Z,8.90
2022-09-23T02:39:45.869Z,8.89
2022-09-23T02:40:46.079Z,8.88
2022-09-23T02:41:46.180Z,8.87
2022-09-23T02:42:46.258Z,8.86
2022-09-23T02:43:46.398Z,8.86
2022-09-23T02:44:46.529Z,8.85
2022-09-23T02:45:46.733Z,8.85
2022-09-23T02:46:46.877Z,8.85
2022-09-23T02:47:46.937Z,8.84
2022-09-23T02:48:47.065Z,8.84
2022-09-23T02:49:47.179Z,8.83
2022-09-23T02:50:47.282Z,8.83
2022-09-23T02:51:47.476Z,8.83
2022-09-23T02:52:47.516Z,8.82
2022-09-23T02:53:47.645Z,8.82
2022-09-23T02:54:47.801Z,8.83
2022-09-23T02:55:47.935Z,8.83
2022-09-23T02:56:48.194Z,8.83
2022-09-23T02:57:48.234Z,8.83
2022-09-23T02:58:48.349Z,8.83
2022-09-23T02:59:48.476Z,8.83
2022-09-23T03:00:48.653Z,8.83
2022-09-23T03:01:48.967Z,8.83
2022-09-23T03:02:48.886Z,8.83
2022-09-23T03:03:49.033Z,8.83
2022-09-23T03:04:49.129Z,8.83
2022-09-23T03:05:49.292Z,8.84
2022-09-23T03:06:49.535Z,8.85
2022-09-23T03:07:49.520Z,8.85
2022-09-23T03:08:49.670Z,8.85
2022-09-23T03:09:49.845Z,8.85
2022-09-23T03:10:49.941Z,8.86
2022-09-23T03:11:50.251Z,8.86
2022-09-23T03:12:50.185Z,8.86
2022-09-23T03:13:50.332Z,8.86
2022-09-23T03:14:50.459Z,8.87
2022-09-23T03:15:50.609Z,8.87
2022-09-23T03:16:50.933Z,8.87
2022-09-23T03:17:50.859Z,8.87
2022-09-23T03:18:50.999Z,8.88
2022-09-23T03:19:51.149Z,8.88
2022-09-23T03:20:51.301Z,8.88
2022-09-23T03:21:51.517Z,8.87
2022-09-23T03:22:51.560Z,8.87
2022-09-23T03:23:51.647Z,8.86
2022-09-23T03:24:54.040Z,8.85
2022-09-23T03:25:51.907Z,8.84
2022-09-23T03:26:52.186Z,8.83
2022-09-23T03:27:52.229Z,8.83
2022-09-23T03:28:52.326Z,8.82
2022-09-23T03:29:52.468Z,8.81
2022-09-23T03:30:52.603Z,8.80
2022-09-23T03:31:53.009Z,8.79
2022-09-23T03:32:52.885Z,8.77
2022-09-23T03:33:53.025Z,8.76
2022-09-23T03:34:53.143Z,8.75
2022-09-23T03:35:53.338Z,8.73
2022-09-23T03:36:53.575Z,8.72
2022-09-23T03:37:53.554Z,8.71
2022-09-23T03:38:53.701Z,8.70
2022-09-23T03:39:53.911Z,8.70
2022-09-23T03:40:54.036Z,8.70
2022-09-23T03:41:54.292Z,8.70
2022-09-23T03:42:54.223Z,8.70
2022-09-23T03:43:54.366Z,8.70
2022-09-23T03:44:54.505Z,8.70
2022-09-23T03:45:54.674Z,8.69
2022-09-23T03:46:54.823Z,8.69
2022-09-23T03:47:54.925Z,8.68
2022-09-23T03:48:55.062Z,8.68
2022-09-23T03:49:55.192Z,8.67
2022-09-23T03:50:55.362Z,8.65
2022-09-23T03:51:55.516Z,8.64
2022-09-23T03:52:55.620Z,8.63
2022-09-23T03:53:55.729Z,8.62
2022-09-23T03:54:55.880Z,8.62
2022-09-23T03:55:56.019Z,8.62
2022-09-23T03:56:56.269Z,8.62
2022-09-23T03:57:56.331Z,8.61
2022-09-23T03:58:56.429Z,8.60
2022-09-23T03:59:56.549Z,8.59
2022-09-23T04:00:56.722Z,8.58
2022-09-23T04:01:57.043Z,8.56
2022-09-23T04:02:56.970Z,8.55
2022-09-23T04:03:57.124Z,8.53
2022-09-23T04:04:57.268Z,8.52
2022-09-23T04:05:57.367Z,8.51
2022-09-23T04:06:57.749Z,8.51
2022-09-23T04:07:57.616Z,8.51
2022-09-23T04:08:57.768Z,8.52
2022-09-23T04:09:57.945Z,8.53
2022-09-23T04:10:58.058Z,8.54
2022-09-23T04:11:58.255Z,8.55
2022-09-23T04:12:58.423Z,8.57
2022-09-23T04:13:58.436Z,8.59
2022-09-23T04:14:58.535Z,8.61
2022-09-23T04:15:58.745Z,8.61
2022-09-23T04:16:58.937Z,8.61
2022-09-23T04:17:58.916Z,8.60
2022-09-23T04:18:59.079Z,8.59
2022-09-23T04:19:59.182Z,8.58
2022-09-23T04:20:59.338Z,8.58
2022-09-23T04:21:59.585Z,8.57
2022-09-23T04:22:59.543Z,8.56
2022-09-23T04:23:59.696Z,8.56
2022-09-23T04:24:59.792Z,8.54
2022-09-23T04:25:59.876Z,8.53
2022-09-23T04:27:00.122Z,8.51
2022-09-23T04:28:00.160Z,8.49
2022-09-23T04:29:00.291Z,8.46
2022-09-23T04:30:00.452Z,8.44
2022-09-23T04:31:00.555Z,8.42
2022-09-23T04:32:00.852Z,8.39
2022-09-23T04:33:00.770Z,8.37
2022-09-23T04:34:00.908Z,8.35
2022-09-23T04:35:01.005Z,8.34
2022-09-23T04:36:01.130Z,8.35
2022-09-23T04:37:01.370Z,8.36
2022-09-23T04:38:01.398Z,8.37
2022-09-23T04:39:01.563Z,8.38
2022-09-23T04:40:01.624Z,8.39
2022-09-23T04:41:01.756Z,8.40
2022-09-23T04:42:01.981Z,8.41
2022-09-23T04:43:02.068Z,8.42
2022-09-23T04:44:02.158Z,8.43
2022-09-23T04:45:02.296Z,8.44
2022-09-23T04:46:02.437Z,8.45
2022-09-23T04:47:02.714Z,8.46
2022-09-23T04:48:02.687Z,8.47
2022-09-23T04:49:02.859Z,8.49
2022-09-23T04:50:02.909Z,8.50
2022-09-23T04:51:03.037Z,8.52
2022-09-23T04:52:03.221Z,8.53
2022-09-23T04:53:03.236Z,8.53
2022-09-23T04:54:03.346Z,8.54
2022-09-23T04:55:04.190Z,8.53
2022-09-23T04:56:03.593Z,8.53
2022-09-23T04:57:03.784Z,8.53
2022-09-23T04:58:03.797Z,8.53
2022-09-23T04:59:03.896Z,8.54
2022-09-23T05:00:04.055Z,8.54
2022-09-23T05:01:05.470Z,8.53
2022-09-23T05:02:04.574Z,8.52
2022-09-23T05:03:04.405Z,8.51
2022-09-23T05:04:04.505Z,8.49
2022-09-23T05:05:04.608Z,8.47
2022-09-23T05:06:04.733Z,8.45
2022-09-23T05:07:04.993Z,8.44
2022-09-23T05:08:04.949Z,8.42
2022-09-23T05:09:05.061Z,8.40
2022-09-23T05:10:05.162Z,8.39
2022-09-23T05:11:05.291Z,8.39
2022-09-23T05:12:05.559Z,8.39
2022-09-23T05:13:05.523Z,8.39
2022-09-23T05:14:05.640Z,8.39
2022-09-23T05:15:05.787Z,8.41
2022-09-23T05:16:05.939Z,8.44
2022-09-23T05:17:06.159Z,8.47
2022-09-23T05:18:06.214Z,8.50
2022-09-23T05:19:06.321Z,8.53
2022-09-23T05:20:06.461Z,8.57
2022-09-23T05:21:06.586Z,8.60
2022-09-23T05:22:06.827Z,8.63
2022-09-23T05:23:06.888Z,8.64
2022-09-23T05:24:07.015Z,8.65
2022-09-23T05:25:07.137Z,8.65
2022-09-23T05:26:07.231Z,8.65
2022-09-23T05:27:07.469Z,8.64
2022-09-23T05:28:07.499Z,8.64
2022-09-23T05:29:07.766Z,8.64
2022-09-23T05:30:07.756Z,8.65
2022-09-23T05:31:07.956Z,8.67
2022-09-23T05:32:08.166Z,8.70
2022-09-23T05:33:08.155Z,8.71
2022-09-23T05:34:08.316Z,8.73
2022-09-23T05:35:08.415Z,8.73
2022-09-23T05:36:08.564Z,8.73
2022-09-23T05:37:08.755Z,8.72
2022-09-23T05:38:08.877Z,8.72
2022-09-23T05:39:09.215Z,8.72
2022-09-23T05:40:09.145Z,8.73
2022-09-23T05:41:09.215Z,8.75
2022-09-23T05:42:09.566Z,8.78
2022-09-23T05:43:09.503Z,8.81
2022-09-23T05:44:09.599Z,8.85
2022-09-23T05:45:09.802Z,8.88
2022-09-23T05:46:09.941Z,8.92
2022-09-23T05:47:10.115Z,8.95
2022-09-23T05:48:10.082Z,8.98
2022-09-23T05:49:10.484Z,9.01
2022-09-23T05:50:10.341Z,9.05
2022-09-23T05:51:10.511Z,9.10
2022-09-23T05:52:10.763Z,9.15
2022-09-23T05:53:10.730Z,9.20
2022-09-23T05:54:10.855Z,9.25
2022-09-23T05:55:10.989Z,9.28
2022-09-23T05:56:11.139Z,9.32
2022-09-23T05:57:11.327Z,9.36
2022-09-23T05:58:11.368Z,9.40
2022-09-23T05:59:11.518Z,9.44
2022-09-23T06:00:11.670Z,9.47
2022-09-23T06:01:11.747Z,9.51
2022-09-23T06:02:12.136Z,9.54
2022-09-23T06:03:12.084Z,9.57
2022-09-23T06:04:12.138Z,9.60
2022-09-23T06:05:12.347Z,9.63
2022-09-23T06:06:12.456Z,9.65
2022-09-23T06:07:12.637Z,9.67
2022-09-23T06:08:12.627Z,9.69
2022-09-23T06:09:12.756Z,9.71
2022-09-23T06:10:12.866Z,9.73
2022-09-23T06:11:13.052Z,9.76
2022-09-23T06:12:13.763Z,9.81
2022-09-23T06:13:13.301Z,9.85
2022-09-23T06:14:13.388Z,9.90
2022-09-23T06:15:13.515Z,9.96
2022-09-23T06:16:13.735Z,10.03
2022-09-23T06:17:13.892Z,10.11
2022-09-23T06:18:13.936Z,10.19
2022-09-23T06:19:14.033Z,10.28
2022-09-23T06:20:14.130Z,10.38
2022-09-23T06:21:14.267Z,10.49
2022-09-23T06:22:14.512Z,10.60
2022-09-23T06:23:14.502Z,10.70
2022-09-23T06:24:18.792Z,10.80
2022-09-23T06:25:15.862Z,10.87
2022-09-23T06:26:14.911Z,10.94
2022-09-23T06:27:15.101Z,11.02
2022-09-23T06:28:15.250Z,11.10
2022-09-23T06:29:15.274Z,11.18
2022-09-23T06:30:15.362Z,11.25
2022-09-23T06:31:15.619Z,11.34
2022-09-23T06:32:15.803Z,11.41
2022-09-23T06:33:17.490Z,11.47
2022-09-23T06:34:16.174Z,11.52
2022-09-23T06:35:25.510Z,11.58
2022-09-23T06:36:31.029Z,11.63
2022-09-23T06:37:20.439Z,11.66
2022-09-23T06:38:16.379Z,11.68
2022-09-23T06:39:16.636Z,11.69
2022-09-23T06:40:16.715Z,11.68
2022-09-23T06:41:16.819Z,11.66
2022-09-23T06:42:16.926Z,11.65
2022-09-23T06:43:17.078Z,11.64
2022-09-23T06:44:17.185Z,11.63
2022-09-23T06:45:17.366Z,11.62
2022-09-23T06:46:17.462Z,11.61
2022-09-23T06:47:17.530Z,11.61
2022-09-23T06:48:17.656Z,11.63
2022-09-23T06:49:17.777Z,11.66
2022-09-23T06:50:17.879Z,11.70
2022-09-23T06:51:18.023Z,11.74
2022-09-23T06:52:18.091Z,11.76
2022-09-23T06:53:18.225Z,11.80
2022-09-23T06:54:18.336Z,11.84
2022-09-23T06:55:18.495Z,11.91
2022-09-23T06:56:18.615Z,11.99
2022-09-23T06:57:18.694Z,12.07
2022-09-23T06:58:18.875Z,12.14
2022-09-23T06:59:18.984Z,12.21
2022-09-23T07:00:19.106Z,12.27
2022-09-23T07:01:19.308Z,12.33
2022-09-23T07:02:19.518Z,12.39
2022-09-23T07:03:19.515Z,12.46
2022-09-23T07:04:19.616Z,12.53
2022-09-23T07:05:19.776Z,12.59
2022-09-23T07:06:19.882Z,12.64
2022-09-23T07:07:19.984Z,12.67
2022-09-23T07:08:20.122Z,12.69
2022-09-23T07:09:20.263Z,12.72
2022-09-23T07:10:20.363Z,12.77
2022-09-23T07:11:20.512Z,12.83
2022-09-23T07:12:20.637Z,12.89
2022-09-23T07:13:20.772Z,12.95
2022-09-23T07:14:20.827Z,12.99
2022-09-23T07:15:20.934Z,13.02
2022-09-23T07:16:21.198Z,13.04
2022-09-23T07:17:21.211Z,13.08
2022-09-23T07:18:21.441Z,13.13
2022-09-23T07:19:21.449Z,13.18
2022-09-23T07:20:21.584Z,13.23
2022-09-23T07:21:21.731Z,13.27
2022-09-23T07:22:21.890Z,13.29
2022-09-23T07:23:24.417Z,13.30
2022-09-23T07:24:22.143Z,13.30
2022-09-23T07:25:22.297Z,13.30
2022-09-23T07:26:22.350Z,13.30
2022-09-23T07:27:22.467Z,13.30
2022-09-23T07:28:22.699Z,13.31
2022-09-23T07:29:22.709Z,13.31
2022-09-23T07:30:25.355Z,13.31
2022-09-23T07:31:34.853Z,13.31
2022-09-23T07:32:24.080Z,13.31
2022-09-23T07:33:31.723Z,13.31
2022-09-23T07:34:24.359Z,13.32
2022-09-23T07:35:23.478Z,13.35
2022-09-23T07:36:23.598Z,13.39
2022-09-23T07:37:23.698Z,13.44
2022-09-23T07:38:23.942Z,13.48
2022-09-23T07:39:23.938Z,13.53
2022-09-23T07:40:24.278Z,13.60
2022-09-23T07:41:24.233Z,13.67
2022-09-23T07:42:24.337Z,13.74
2022-09-23T07:43:24.565Z,13.81
2022-09-23T07:44:24.576Z,13.90
2022-09-23T07:45:24.686Z,14.01
2022-09-23T07:46:24.917Z,14.12
2022-09-23T07:47:24.948Z,14.23
2022-09-23T07:48:25.262Z,14.33
2022-09-23T07:49:25.256Z,14.43
2022-09-23T07:50:25.347Z,14.52
2022-09-23T07:51:25.507Z,14.60
2022-09-23T07:52:25.625Z,14.69
2022-09-23T07:53:25.835Z,14.80
2022-09-23T07:54:25.846Z,14.92
2022-09-23T07:55:25.945Z,15.02
2022-09-23T07:56:26.068Z,15.11
2022-09-23T07:57:26.203Z,15.16
2022-09-23T07:58:26.414Z,15.19
2022-09-23T07:59:26.444Z,15.22
2022-09-23T08:00:26.627Z,15.24
2022-09-23T08:01:26.778Z,15.27
2022-09-23T08:02:26.877Z,15.29
2022-09-23T08:03:27.045Z,15.30
2022-09-23T08:04:27.184Z,15.30
2022-09-23T08:05:27.193Z,15.30
2022-09-23T08:06:27.305Z,15.27
2022-09-23T08:07:27.442Z,15.23
2022-09-23T08:08:27.713Z,15.21
2022-09-23T08:09:27.703Z,15.18
2022-09-23T08:10:27.842Z,15.15
2022-09-23T08:11:27.984Z,15.14
2022-09-23T08:12:28.179Z,15.13
2022-09-23T08:13:28.328Z,15.13
2022-09-23T08:14:28.443Z,15.13
2022-09-23T08:15:28.605Z,15.15
2022-09-23T08:16:28.699Z,15.19
2022-09-23T08:17:28.842Z,15.24
2022-09-23T08:18:29.034Z,15.27
2022-09-23T08:19:29.081Z,15.31
2022-09-23T08:20:29.181Z,15.36
2022-09-23T08:21:29.311Z,15.42
2022-09-23T08:22:29.391Z,15.47
2022-09-23T08:23:29.662Z,15.47
2022-09-23T08:24:29.641Z,15.42
2022-09-23T08:25:32.393Z,15.38
2022-09-23T08:26:29.881Z,15.38
2022-09-23T08:27:30.022Z,15.40
2022-09-23T08:28:30.270Z,15.42
2022-09-23T08:29:30.298Z,15.46
2022-09-23T08:30:30.448Z,15.49
2022-09-23T08:31:30.559Z,15.52
2022-09-23T08:32:30.679Z,15.57
2022-09-23T08:33:30.909Z,15.60
2022-09-23T08:34:30.915Z,15.62
2022-09-23T08:35:31.019Z,15.64
2022-09-23T08:36:31.189Z,15.64
2022-09-23T08:37:31.308Z,15.63
2022-09-23T08:38:31.449Z,15.65
2022-09-23T08:39:31.562Z,15.68
2022-09-23T08:40:31.682Z,15.73
2022-09-23T08:41:31.808Z,15.83
2022-09-23T08:42:31.958Z,15.95
2022-09-23T08:43:32.241Z,16.07
2022-09-23T08:44:32.237Z,16.14
2022-09-23T08:45:32.336Z,16.19
2022-09-23T08:46:32.476Z,16.28
2022-09-23T08:47:32.585Z,16.38
2022-09-23T08:48:32.908Z,16.48
2022-09-23T08:49:32.798Z,16.59
2022-09-23T08:50:32.918Z,16.73
2022-09-23T08:51:33.039Z,16.84
2022-09-23T08:52:33.137Z,16.91
2022-09-23T08:53:33.320Z,16.94
2022-09-23T08:54:33.378Z,16.92
2022-09-23T08:55:33.471Z,16.88
2022-09-23T08:56:35.402Z,16.81
2022-09-23T08:57:33.776Z,16.72
2022-09-23T08:58:34.070Z,16.66
2022-09-23T08:59:34.005Z,16.63
2022-09-23T09:00:34.164Z,16.61
2022-09-23T09:01:34.318Z,16.58
2022-09-23T09:02:34.432Z,16.54
2022-09-23T09:03:34.552Z,16.50
2022-09-23T09:04:34.589Z,16.47
2022-09-23T09:05:34.736Z,16.44
2022-09-23T09:06:45.553Z,16.44
2022-09-23T09:07:37.307Z,16.47
2022-09-23T09:08:35.160Z,16.49
2022-09-23T09:09:35.325Z,16.51
2022-09-23T09:10:35.395Z,16.52
2022-09-23T09:11:35.525Z,16.52
2022-09-23T09:12:35.615Z,16.51
2022-09-23T09:13:35.766Z,16.48
2022-09-23T09:14:35.852Z,16.44
2022-09-23T09:15:36.092Z,16.44
2022-09-23T09:16:58.558Z,16.47
2022-09-23T09:17:37.226Z,16.51
2022-09-23T09:18:36.474Z,16.56
2022-09-23T09:19:36.464Z,16.57
2022-09-23T09:20:36.544Z,16.55
2022-09-23T09:21:36.730Z,16.54
2022-09-23T09:23:36.987Z,16.60
2022-09-23T09:24:37.103Z,16.63
2022-09-23T09:25:37.192Z,16.65
2022-09-23T09:26:37.341Z,16.66
2022-09-23T09:27:37.434Z,16.63
2022-09-23T09:28:37.714Z,16.57
2022-09-23T09:29:37.999Z,16.51
2022-09-23T09:30:37.912Z,16.47
2022-09-23T09:31:38.039Z,16.42
2022-09-23T09:32:38.054Z,16.38
2022-09-23T09:33:38.183Z,16.38
2022-09-23T09:34:38.323Z,16.38
2022-09-23T09:35:38.412Z,16.39
2022-09-23T09:36:38.556Z,16.42
2022-09-23T09:37:38.643Z,16.48
2022-09-23T09:38:38.784Z,16.53
2022-09-23T09:39:38.883Z,16.55
2022-09-23T09:40:39.040Z,16.58
2022-09-23T09:41:39.110Z,16.61
2022-09-23T09:42:39.221Z,16.62
2022-09-23T09:43:43.467Z,16.64
2022-09-23T09:44:39.423Z,16.67
2022-09-23T09:45:39.571Z,16.70
2022-09-23T09:46:39.788Z,16.76
2022-09-23T09:47:39.831Z,16.82
2022-09-23T09:48:39.922Z,16.87
2022-09-23T09:49:40.771Z,16.91
2022-09-23T09:50:40.131Z,16.95
2022-09-23T09:51:40.231Z,16.97
2022-09-23T09:52:46.827Z,16.98
2022-09-23T09:53:40.497Z,16.97
2022-09-23T09:54:40.526Z,16.98
2022-09-23T09:55:40.693Z,17.01
2022-09-23T09:56:40.833Z,17.07
2022-09-23T09:57:40.925Z,17.12
2022-09-23T09:58:41.054Z,17.16
2022-09-23T09:59:41.136Z,17.16
2022-09-23T10:00:41.273Z,17.18
2022-09-23T10:01:41.470Z,17.21
2022-09-23T10:02:41.551Z,17.22
2022-09-23T10:03:41.763Z,17.25
2022-09-23T10:04:41.861Z,17.29
2022-09-23T10:05:41.996Z,17.35
2022-09-23T10:06:42.081Z,17.42
2022-09-23T10:07:42.218Z,17.51
2022-09-23T10:08:42.372Z,17.59
2022-09-23T10:09:42.491Z,17.64
2022-09-23T10:10:42.630Z,17.67
2022-09-23T10:11:42.749Z,17.70
2022-09-23T10:12:42.889Z,17.74
2022-09-23T10:13:43.019Z,17.77
2022-09-23T10:14:43.125Z,17.76
2022-09-23T10:15:44.932Z,17.68
2022-09-23T10:16:43.371Z,17.57
2022-09-23T10:17:43.470Z,17.49
2022-09-23T10:18:43.628Z,17.43
2022-09-23T10:19:43.676Z,17.43
2022-09-23T10:20:43.847Z,17.47
2022-09-23T10:21:43.954Z,17.51
2022-09-23T10:22:44.096Z,17.51
2022-09-23T10:23:44.219Z,17.50
2022-09-23T10:24:44.340Z,17.49
2022-09-23T10:25:44.440Z,17.50
2022-09-23T10:26:44.608Z,17.50
2022-09-23T10:27:44.688Z,17.47
2022-09-23T10:28:44.863Z,17.43
2022-09-23T10:29:44.987Z,17.39
2022-09-23T10:30:45.132Z,17.35
2022-09-23T10:31:45.227Z,17.34
2022-09-23T10:32:45.356Z,17.37
2022-09-23T10:33:45.487Z,17.41
2022-09-23T10:34:45.702Z,17.44
2022-09-23T10:35:45.649Z,17.44
2022-09-23T10:36:45.801Z,17.41
2022-09-23T10:37:45.880Z,17.36
2022-09-23T10:38:46.070Z,17.29
2022-09-23T10:39:46.311Z,17.24
2022-09-23T10:40:46.427Z,17.26
2022-09-23T10:41:46.443Z,17.30
2022-09-23T10:42:46.555Z,17.32
2022-09-23T10:43:46.694Z,17.31
2022-09-23T10:44:46.773Z,17.30
2022-09-23T10:45:47.017Z,17.32
2022-09-23T10:46:47.063Z,17.36
2022-09-23T10:47:47.191Z,17.41
2022-09-23T10:48:47.324Z,17.49
2022-09-23T10:49:47.469Z,17.56
2022-09-23T10:50:47.554Z,17.62
2022-09-23T10:51:47.737Z,17.64
2022-09-23T10:52:47.836Z,17.64
2022-09-23T10:53:47.975Z,17.65
2022-09-23T10:54:48.126Z,17.67
2022-09-23T10:55:48.156Z,17.68
2022-09-23T10:56:48.306Z,17.67
2022-09-23T10:57:48.466Z,17.66
2022-09-23T10:58:48.787Z,17.63
2022-09-23T10:59:48.678Z,17.59
2022-09-23T11:00:48.778Z,17.56
2022-09-23T11:01:48.940Z,17.57
2022-09-23T11:02:48.978Z,17.59
2022-09-23T11:03:49.199Z,17.60
2022-09-23T11:04:49.287Z,17.60
2022-09-23T11:05:49.357Z,17.59
2022-09-23T11:06:49.477Z,17.60
2022-09-23T11:07:49.580Z,17.61
2022-09-23T11:08:49.790Z,17.62
2022-09-23T11:09:49.831Z,17.62
2022-09-23T11:10:49.942Z,17.62
2022-09-23T11:11:50.257Z,17.62
2022-09-23T11:12:50.184Z,17.62
2022-09-23T11:13:54.189Z,17.62
2022-09-23T11:14:50.440Z,17.64
2022-09-23T11:15:50.542Z,17.67
2022-09-23T11:16:50.702Z,17.70
2022-09-23T11:17:50.832Z,17.73
2022-09-23T11:18:50.928Z,17.77
2022-09-23T11:19:51.014Z,17.79
2022-09-23T11:20:51.183Z,17.78
2022-09-23T11:21:51.296Z,17.77
2022-09-23T11:22:51.395Z,17.75
2022-09-23T11:23:51.581Z,17.69
2022-09-23T11:24:51.686Z,17.66
2022-09-23T11:25:51.798Z,17.68
2022-09-23T11:26:51.926Z,17.72
2022-09-23T11:27:51.994Z,17.77
2022-09-23T11:28:52.186Z,17.82
2022-09-23T11:29:52.296Z,17.87
2022-09-23T11:30:52.474Z,17.89
2022-09-23T11:31:56.155Z,17.90
2022-09-23T11:32:53.667Z,17.88
2022-09-23T11:33:52.824Z,17.83
2022-09-23T11:34:54.944Z,17.79
2022-09-23T11:35:52.977Z,17.77
2022-09-23T11:36:53.090Z,17.78
2022-09-23T11:37:53.178Z,17.82
2022-09-23T11:38:53.377Z,17.87
2022-09-23T11:39:53.437Z,17.90
2022-09-23T11:40:53.599Z,17.92
2022-09-23T11:41:53.668Z,17.94
2022-09-23T11:42:53.767Z,17.96
2022-09-23T11:43:53.960Z,17.98
2022-09-23T11:44:53.998Z,18.02
2022-09-23T11:45:54.151Z,18.06
2022-09-23T11:46:54.255Z,18.10
2022-09-23T11:47:54.341Z,18.14
2022-09-23T11:48:54.567Z,18.15
2022-09-23T11:49:54.614Z,18.10
2022-09-23T11:50:54.748Z,18.04
2022-09-23T11:51:54.836Z,18.01
2022-09-23T11:52:54.975Z,18.00
2022-09-23T11:53:55.199Z,17.97
2022-09-23T11:54:55.285Z,17.95
2022-09-23T11:55:58.213Z,17.93
2022-09-23T11:56:55.519Z,17.88
2022-09-23T11:57:55.659Z,17.83
2022-09-23T11:58:59.700Z,17.78
2022-09-23T11:59:55.901Z,17.74
2022-09-23T12:01:00.219Z,17.71
2022-09-23T12:01:57.738Z,17.70
2022-09-23T12:03:04.985Z,17.69
2022-09-23T12:03:58.414Z,17.67
2022-09-23T12:04:58.267Z,17.67
2022-09-23T12:05:56.834Z,17.65
2022-09-23T12:06:56.750Z,17.62
2022-09-23T12:07:56.880Z,17.61
2022-09-23T12:08:56.950Z,17.63
2022-09-23T12:09:58.446Z,17.66
2022-09-23T12:10:57.163Z,17.65
2022-09-23T12:11:57.331Z,17.64
2022-09-23T12:12:57.449Z,17.66
2022-09-23T12:13:57.547Z,17.67
2022-09-23T12:14:57.830Z,17.67
2022-09-23T12:15:57.842Z,17.66
2022-09-23T12:16:58.056Z,17.67
2022-09-23T12:17:58.071Z,17.69
2022-09-23T12:18:58.211Z,17.72
2022-09-23T12:19:58.409Z,17.75
2022-09-23T12:20:58.474Z,17.75
2022-09-23T12:21:58.611Z,17.73
2022-09-23T12:22:58.724Z,17.69
2022-09-23T12:23:58.813Z,17.65
2022-09-23T12:24:59.000Z,17.60
2022-09-23T12:25:59.060Z,17.54
2022-09-23T12:26:59.172Z,17.50
2022-09-23T12:27:59.285Z,17.49
2022-09-23T12:28:59.432Z,17.50
2022-09-23T12:29:59.564Z,17.51
2022-09-23T12:30:59.725Z,17.52
2022-09-23T12:31:59.771Z,17.50
2022-09-23T12:32:59.879Z,17.49
2022-09-23T12:33:59.990Z,17.47
2022-09-23T12:35:00.181Z,17.44
2022-09-23T12:36:00.280Z,17.40
2022-09-23T12:37:00.379Z,17.38
2022-09-23T12:38:00.462Z,17.37
2022-09-23T12:39:00.630Z,17.36
2022-09-23T12:40:00.915Z,17.35
2022-09-23T12:41:00.862Z,17.34
2022-09-23T12:42:01.002Z,17.36
2022-09-23T12:43:01.121Z,17.38
2022-09-23T12:44:01.276Z,17.40
2022-09-23T12:45:01.412Z,17.42
2022-09-23T12:46:01.509Z,17.43
2022-09-23T12:47:01.591Z,17.44
2022-09-23T12:48:01.699Z,17.44
2022-09-23T12:49:01.839Z,17.44
2022-09-23T12:50:02.564Z,17.44
2022-09-23T12:51:02.105Z,17.47
2022-09-23T12:52:02.212Z,17.49
2022-09-23T12:53:02.372Z,17.49
2022-09-23T12:54:02.506Z,17.48
2022-09-23T12:55:02.661Z,17.49
2022-09-23T12:56:02.750Z,17.51
2022-09-23T12:57:02.840Z,17.52
2022-09-23T12:58:02.999Z,17.55
2022-09-23T12:59:03.121Z,17.59
2022-09-23T13:00:03.300Z,17.60
2022-09-23T13:01:03.453Z,17.57
2022-09-23T13:02:03.500Z,17.53
2022-09-23T13:03:03.561Z,17.51
2022-09-23T13:04:03.691Z,17.52
2022-09-23T13:05:03.881Z,17.51
2022-09-23T13:06:03.879Z,17.51